Airfield :
LOGIN :

Register | Disclaimer

   EN    FR    IT 

 










Legend :    VFR   Marginal VFR   IFR   Intensive IFR   Very Intensive IFR
Visi :
Ceiling :
>= 8 km
>= 3000ft
5 to 8 km
1000 to 3000 ft
1500m to 5 km
500 to 1000 ft
800 to 1500m
200 to 500 ft
< 800m
< 200 ft
Symbols :   Thunderstorms  Fog  Heavy snow  Heavy precipitations  Wind > 20 kt
SIGMETs :     Misc.  Thunderstorms  Icing  Turbulence  Mountain Waves  Volcanic Ashes







- Airport Elevation : 308 ft
- IATA code : POZ


EPPO - Poznan-Lawica

CURRENT METAR :
  • 260730Z 26010KT 9999 FEW023 12/04 Q1012

EXPIRED METARs :
  • 260700Z 27010KT 9999 FEW022 11/06 Q1012
  • 260630Z 25009KT CAVOK 10/05 Q1012
  • 260600Z 23008KT CAVOK 09/05 Q1011
  • 260530Z 24007KT CAVOK 08/05 Q1011
  • 260500Z 23006KT 9999 FEW034 07/05 Q1011

TAF TAF EPPO
Valid from the 26 at 06:00 until the 27 at 06:00 UTC


260530Z 2606/2706 25008KT 9999 SCT040
TEMPO 2609/2624 27016G26KT -SHRA BKN030CB
PROB40
TEMPO 2612/2618 VRB20G35KT 4000 TSRA BKN014CB
PROB40 2700/2706 BKN006
No reported NOTAMs for that airfield.



MET'MAP, your aeronautical weather chart ! - Copyright ORBIFLY December 2007 - Disclaimer

ORBIFLY MET'MAP TEAM :

Programming & Development : Alexandra Zaïnal
Concept & Development : Baudouin d'Aumeries
Co-Development & Prog : Marc-Olivier Méhu
Technical & hardware support : Manuel Goepfert

Contact : metmap@orbifly.com




SOURCES & CREDITS :

   NOAA